createdAt,value
2023-01-13T00:00:09.282Z,2.63
2023-01-13T00:02:35.733Z,2.53
2023-01-13T00:05:02.298Z,1.97
2023-01-13T00:07:28.776Z,2.80
2023-01-13T00:09:55.118Z,2.13
2023-01-13T00:12:21.529Z,1.93
2023-01-13T00:14:47.856Z,3.13
2023-01-13T00:17:14.379Z,2.27
2023-01-13T00:19:40.730Z,2.63
2023-01-13T00:22:07.170Z,5.83
2023-01-13T00:24:33.525Z,5.03
2023-01-13T00:26:59.895Z,4.60
2023-01-13T00:29:26.243Z,7.60
2023-01-13T00:31:52.675Z,2.50
2023-01-13T00:34:19.113Z,3.60
2023-01-13T00:36:45.733Z,7.50
2023-01-13T00:39:12.231Z,3.57
2023-01-13T00:41:57.337Z,4.10
2023-01-13T00:44:23.707Z,10.27
2023-01-13T00:46:50.138Z,4.50
2023-01-13T00:49:16.606Z,6.47
2023-01-13T00:51:43.061Z,5.93
2023-01-13T00:54:09.597Z,10.07
2023-01-13T00:56:41.047Z,8.30
2023-01-13T00:59:10.126Z,2.07
2023-01-13T01:01:36.695Z,8.40
2023-01-13T01:04:03.212Z,5.70
2023-01-13T01:06:29.700Z,6.07
2023-01-13T01:08:56.418Z,8.20
2023-01-13T01:11:24.129Z,6.47
2023-01-13T01:13:53.963Z,11.40
2023-01-13T01:16:21.446Z,6.77
2023-01-13T01:18:48.645Z,7.23
2023-01-13T01:21:15.246Z,9.27
2023-01-13T01:23:42.020Z,9.37
2023-01-13T01:26:10.982Z,6.97
2023-01-13T01:28:37.589Z,4.30
2023-01-13T01:31:08.006Z,12.17
2023-01-13T01:33:34.534Z,7.37
2023-01-13T01:36:01.798Z,12.20
2023-01-13T01:38:28.189Z,8.70
2023-01-13T01:40:54.515Z,14.73
2023-01-13T01:43:40.169Z,8.50
2023-01-13T01:46:06.760Z,9.17
2023-01-13T01:48:35.036Z,12.63
2023-01-13T01:51:02.095Z,14.10
2023-01-13T01:53:29.245Z,8.53
2023-01-13T01:55:56.556Z,14.17
2023-01-13T01:58:28.590Z,6.37
2023-01-13T02:00:55.011Z,10.83
2023-01-13T02:03:21.711Z,10.50
2023-01-13T02:05:48.532Z,14.13
2023-01-13T02:08:15.216Z,13.80
2023-01-13T02:10:43.021Z,10.57
2023-01-13T02:13:11.985Z,9.33
2023-01-13T02:15:52.801Z,7.73
2023-01-13T02:18:37.845Z,8.20
2023-01-13T02:21:22.535Z,14.47
2023-01-13T02:24:23.071Z,14.67
2023-01-13T02:27:08.059Z,9.43
2023-01-13T02:30:11.140Z,20.80
2023-01-13T02:32:37.475Z,15.33
2023-01-13T02:35:27.287Z,12.60
2023-01-13T02:37:54.777Z,12.67
2023-01-13T02:40:32.109Z,14.37
2023-01-13T02:43:23.109Z,14.17
2023-01-13T02:45:53.214Z,12.87
2023-01-13T02:48:21.783Z,17.27
2023-01-13T02:50:51.782Z,16.30
2023-01-13T02:53:22.189Z,22.13
2023-01-13T02:55:50.533Z,12.43
2023-01-13T02:58:18.899Z,12.27
2023-01-13T03:00:45.943Z,11.63
2023-01-13T03:03:12.353Z,13.83
2023-01-13T03:05:40.178Z,14.57
2023-01-13T03:08:17.886Z,23.83
2023-01-13T03:10:50.547Z,17.23
2023-01-13T03:13:20.031Z,20.57
2023-01-13T03:15:52.446Z,9.50
2023-01-13T03:18:32.860Z,14.20
2023-01-13T03:21:04.884Z,12.90
2023-01-13T03:23:51.601Z,9.60
2023-01-13T03:26:22.051Z,17.33
2023-01-13T03:29:17.761Z,11.33
2023-01-13T03:31:47.484Z,18.77
2023-01-13T03:34:15.523Z,15.63
2023-01-13T03:36:42.497Z,20.73
2023-01-13T03:39:10.807Z,19.03
2023-01-13T03:41:41.649Z,15.43
2023-01-13T03:44:23.231Z,16.33
2023-01-13T03:46:59.083Z,15.73
2023-01-13T03:49:29.414Z,19.30
2023-01-13T03:51:58.895Z,24.97
2023-01-13T03:54:28.200Z,28.53
2023-01-13T03:56:56.979Z,20.50
2023-01-13T03:59:25.874Z,26.77
2023-01-13T04:02:07.644Z,27.60
2023-01-13T04:04:52.115Z,21.50
2023-01-13T04:07:23.687Z,22.67
2023-01-13T04:09:55.721Z,27.67
2023-01-13T04:12:28.163Z,28.10
2023-01-13T04:14:55.331Z,23.97
2023-01-13T04:17:21.842Z,29.33
2023-01-13T04:19:48.256Z,24.50
2023-01-13T04:22:14.587Z,24.47
2023-01-13T04:24:40.968Z,29.10
2023-01-13T04:27:07.323Z,24.43
2023-01-13T04:29:33.783Z,23.60
2023-01-13T04:32:00.178Z,18.43
2023-01-13T04:34:28.375Z,22.60
2023-01-13T04:36:54.993Z,21.03
2023-01-13T04:39:21.410Z,18.87
2023-01-13T04:42:01.266Z,18.90
2023-01-13T04:44:28.218Z,18.13
2023-01-13T04:46:54.595Z,23.13
2023-01-13T04:49:21.109Z,20.03
2023-01-13T04:51:47.524Z,18.93
2023-01-13T04:54:13.987Z,27.20
2023-01-13T04:56:43.231Z,22.10
2023-01-13T04:59:13.089Z,24.47
2023-01-13T05:01:39.829Z,18.07
2023-01-13T05:04:06.869Z,27.10
2023-01-13T05:06:33.636Z,32.37
2023-01-13T05:09:00.459Z,27.13
2023-01-13T05:11:45.507Z,34.77
2023-01-13T05:14:30.558Z,19.27
2023-01-13T05:17:03.688Z,27.20
2023-01-13T05:19:31.428Z,24.23
2023-01-13T05:22:16.415Z,22.13
2023-01-13T05:25:01.398Z,21.47
2023-01-13T05:27:28.279Z,27.67
2023-01-13T05:29:55.057Z,16.67
2023-01-13T05:32:22.191Z,21.83
2023-01-13T05:34:48.734Z,30.33
2023-01-13T05:37:15.149Z,22.27
2023-01-13T05:40:00.346Z,19.93
2023-01-13T05:42:45.161Z,21.80
2023-01-13T05:45:11.857Z,26.97
2023-01-13T05:47:38.306Z,20.87
2023-01-13T05:50:05.255Z,25.13
2023-01-13T05:52:32.194Z,24.93
2023-01-13T05:54:58.574Z,23.00
2023-01-13T05:57:24.959Z,25.00
2023-01-13T05:59:51.391Z,34.03
2023-01-13T06:02:17.883Z,23.53
2023-01-13T06:04:44.310Z,20.17
2023-01-13T06:07:10.739Z,22.93
2023-01-13T06:09:37.106Z,27.27
2023-01-13T06:12:03.609Z,24.50
2023-01-13T06:14:40.065Z,24.23
2023-01-13T06:17:11.009Z,19.53
2023-01-13T06:19:37.869Z,22.20
2023-01-13T06:22:10.552Z,21.27
2023-01-13T06:24:36.913Z,21.53
2023-01-13T06:27:04.540Z,25.33
2023-01-13T06:29:30.961Z,23.37
2023-01-13T06:31:57.843Z,18.90
2023-01-13T06:34:24.446Z,24.27
2023-01-13T06:36:52.260Z,24.83
2023-01-13T06:39:21.831Z,23.20
2023-01-13T06:42:07.220Z,25.53
2023-01-13T06:44:33.596Z,24.07
2023-01-13T06:47:00.104Z,17.87
2023-01-13T06:49:26.570Z,19.03
2023-01-13T06:51:53.077Z,25.73
2023-01-13T06:54:19.680Z,23.33
2023-01-13T06:56:47.029Z,26.57
2023-01-13T06:59:13.461Z,18.93
2023-01-13T07:01:39.991Z,23.73
2023-01-13T07:04:06.603Z,28.10
2023-01-13T07:06:32.976Z,25.77
2023-01-13T07:08:59.340Z,29.13
2023-01-13T07:11:25.783Z,27.53
2023-01-13T07:14:10.939Z,19.80
2023-01-13T07:16:37.415Z,23.50
2023-01-13T07:19:03.886Z,20.47
2023-01-13T07:21:30.295Z,23.13
2023-01-13T07:23:56.637Z,23.30
2023-01-13T07:26:23.209Z,29.73
2023-01-13T07:28:49.736Z,36.00
2023-01-13T07:31:17.616Z,27.97
2023-01-13T07:33:44.239Z,26.23
2023-01-13T07:36:10.668Z,20.60
2023-01-13T07:38:38.469Z,25.10
2023-01-13T07:41:23.751Z,19.03
2023-01-13T07:43:50.636Z,27.70
2023-01-13T07:46:17.383Z,24.20
2023-01-13T07:48:44.164Z,19.67
2023-01-13T07:51:11.505Z,23.27
2023-01-13T07:53:37.896Z,26.40
2023-01-13T07:56:05.472Z,23.17
2023-01-13T07:58:33.434Z,28.97
2023-01-13T08:00:59.966Z,22.33
2023-01-13T08:03:27.068Z,21.77
2023-01-13T08:05:53.488Z,26.43
2023-01-13T08:08:19.929Z,25.23
2023-01-13T08:10:46.311Z,18.63
2023-01-13T08:13:21.144Z,22.47
2023-01-13T08:15:49.178Z,23.37
2023-01-13T08:18:15.833Z,35.87
2023-01-13T08:20:42.208Z,22.20
2023-01-13T08:23:08.568Z,26.47
2023-01-13T08:25:35.127Z,28.73
2023-01-13T08:28:01.615Z,29.07
2023-01-13T08:30:28.374Z,30.33
2023-01-13T08:32:55.008Z,20.43
2023-01-13T08:35:21.898Z,17.00
2023-01-13T08:37:48.585Z,24.40
2023-01-13T08:40:16.498Z,15.53
2023-01-13T08:42:42.938Z,20.90
2023-01-13T08:45:09.908Z,22.90
2023-01-13T08:47:36.461Z,24.97
2023-01-13T08:50:03.241Z,22.13
2023-01-13T08:52:29.710Z,25.30
2023-01-13T08:54:56.100Z,26.70
2023-01-13T08:57:22.927Z,22.23
2023-01-13T08:59:49.340Z,20.80
2023-01-13T09:02:17.323Z,19.13
2023-01-13T09:04:43.835Z,15.40
2023-01-13T09:07:10.345Z,18.93
2023-01-13T09:09:36.884Z,20.23
2023-01-13T09:12:22.033Z,18.87
2023-01-13T09:14:48.824Z,19.30
2023-01-13T09:17:15.239Z,24.70
2023-01-13T09:19:42.100Z,17.23
2023-01-13T09:22:10.300Z,19.97
2023-01-13T09:24:36.837Z,24.13
2023-01-13T09:27:03.383Z,16.30
2023-01-13T09:29:29.880Z,21.93
2023-01-13T09:31:58.134Z,21.17
2023-01-13T09:34:43.099Z,17.87
2023-01-13T09:37:09.529Z,21.87
2023-01-13T09:39:36.429Z,24.00
2023-01-13T09:42:26.219Z,13.30
2023-01-13T09:44:52.603Z,17.90
2023-01-13T09:47:25.736Z,16.60
2023-01-13T09:49:52.223Z,20.37
2023-01-13T09:52:25.094Z,24.20
2023-01-13T09:55:16.357Z,18.27
2023-01-13T09:57:42.766Z,14.40
2023-01-13T10:00:13.928Z,17.40
2023-01-13T10:02:49.320Z,17.80
2023-01-13T10:05:27.452Z,16.23
2023-01-13T10:08:02.221Z,12.40
2023-01-13T10:10:34.402Z,18.77
2023-01-13T10:13:16.440Z,11.20
2023-01-13T10:15:45.541Z,9.37
2023-01-13T10:18:14.820Z,10.20
2023-01-13T10:20:48.923Z,13.37
2023-01-13T10:23:34.698Z,14.67
2023-01-13T10:26:04.144Z,11.77
2023-01-13T10:28:30.706Z,13.70
2023-01-13T10:30:57.337Z,12.67
2023-01-13T10:33:28.091Z,13.40
2023-01-13T10:35:57.596Z,14.33
2023-01-13T10:38:38.073Z,15.37
2023-01-13T10:41:06.011Z,14.97
2023-01-13T10:43:32.701Z,15.47
2023-01-13T10:46:01.123Z,12.70
2023-01-13T10:48:33.691Z,14.80
2023-01-13T10:51:09.710Z,12.50
2023-01-13T10:53:44.602Z,11.83
2023-01-13T10:56:16.088Z,18.93
2023-01-13T10:58:42.478Z,13.03
2023-01-13T11:01:17.077Z,14.93
2023-01-13T11:03:45.341Z,11.40
2023-01-13T11:06:19.333Z,14.93
2023-01-13T11:08:47.711Z,12.07
2023-01-13T11:11:28.311Z,20.23
2023-01-13T11:14:14.920Z,12.60
2023-01-13T11:16:52.728Z,21.90
2023-01-13T11:19:21.604Z,19.27
2023-01-13T11:21:51.190Z,13.80
2023-01-13T11:24:23.829Z,13.63
2023-01-13T11:26:53.659Z,14.17
2023-01-13T11:29:38.727Z,11.27
2023-01-13T11:32:10.463Z,12.53
2023-01-13T11:34:39.326Z,18.47
2023-01-13T11:37:17.957Z,10.30
2023-01-13T11:39:49.492Z,10.57
2023-01-13T11:42:20.971Z,12.70
2023-01-13T11:45:07.697Z,10.00
2023-01-13T11:47:35.349Z,9.87
2023-01-13T11:50:02.257Z,11.33
2023-01-13T11:52:28.721Z,7.63
2023-01-13T11:55:01.010Z,9.47
2023-01-13T11:57:34.334Z,8.70
2023-01-13T12:00:00.675Z,8.43
2023-01-13T12:02:33.456Z,12.97
2023-01-13T12:05:08.862Z,7.50
2023-01-13T12:07:38.201Z,11.70
2023-01-13T12:10:12.294Z,7.10
2023-01-13T12:12:53.598Z,10.43
2023-01-13T12:15:29.246Z,10.90
2023-01-13T12:18:05.169Z,8.70
2023-01-13T12:20:36.095Z,6.63
2023-01-13T12:23:04.282Z,8.97
2023-01-13T12:25:39.591Z,10.87
2023-01-13T12:28:14.577Z,12.83
2023-01-13T12:30:45.734Z,13.47
2023-01-13T12:33:32.695Z,9.00
2023-01-13T12:36:01.170Z,16.70
2023-01-13T12:38:35.476Z,8.47
2023-01-13T12:41:01.919Z,10.50
2023-01-13T12:43:46.789Z,8.93
2023-01-13T12:46:19.087Z,14.43
2023-01-13T12:48:49.383Z,12.40
2023-01-13T12:51:26.764Z,15.43
2023-01-13T12:53:54.737Z,14.30
2023-01-13T12:56:27.303Z,16.03
2023-01-13T12:59:13.716Z,10.17
2023-01-13T13:01:40.207Z,17.77
2023-01-13T13:04:07.974Z,16.73
2023-01-13T13:06:35.973Z,19.83
2023-01-13T13:09:04.422Z,17.97
2023-01-13T13:11:58.192Z,11.70
2023-01-13T13:14:36.897Z,9.97
2023-01-13T13:17:21.861Z,12.97
2023-01-13T13:19:49.056Z,12.03
2023-01-13T13:22:19.794Z,13.07
2023-01-13T13:24:48.956Z,15.50
2023-01-13T13:27:19.815Z,10.03
2023-01-13T13:30:13.377Z,10.70
2023-01-13T13:32:45.548Z,16.53
2023-01-13T13:35:21.121Z,14.87
2023-01-13T13:38:25.227Z,7.17
2023-01-13T13:41:10.248Z,13.73
2023-01-13T13:43:59.614Z,7.10
2023-01-13T13:46:48.432Z,10.87
2023-01-13T13:49:16.264Z,9.57
2023-01-13T13:51:46.198Z,14.23
2023-01-13T13:54:14.579Z,12.97
2023-01-13T13:56:43.345Z,11.63
2023-01-13T13:59:14.372Z,13.70
2023-01-13T14:01:43.066Z,13.23
2023-01-13T14:04:17.916Z,10.43
2023-01-13T14:06:54.726Z,16.83
2023-01-13T14:09:22.050Z,14.77
2023-01-13T14:11:55.766Z,17.23
2023-01-13T14:14:23.049Z,16.03
2023-01-13T14:16:51.795Z,8.27
2023-01-13T14:19:30.217Z,12.83
2023-01-13T14:21:57.137Z,16.60
2023-01-13T14:24:25.064Z,15.70
2023-01-13T14:26:53.368Z,15.50
2023-01-13T14:29:22.104Z,9.00
2023-01-13T14:31:52.663Z,23.13
2023-01-13T14:34:31.221Z,15.40
2023-01-13T14:37:00.809Z,14.33
2023-01-13T14:39:33.116Z,17.30
2023-01-13T14:41:59.536Z,17.97
2023-01-13T14:44:36.237Z,12.87
2023-01-13T14:47:35.264Z,16.97
2023-01-13T14:50:02.767Z,9.23
2023-01-13T14:52:34.176Z,11.50
2023-01-13T14:55:10.518Z,15.00
2023-01-13T14:57:38.610Z,13.17
2023-01-13T15:00:14.316Z,15.83
2023-01-13T15:02:46.432Z,12.10
2023-01-13T15:05:19.165Z,12.27
2023-01-13T15:07:52.309Z,13.13
2023-01-13T15:10:19.966Z,16.63
2023-01-13T15:12:46.614Z,19.03
2023-01-13T15:15:32.814Z,8.23
2023-01-13T15:18:05.903Z,10.27
2023-01-13T15:20:32.368Z,14.30
2023-01-13T15:23:00.952Z,14.67
2023-01-13T15:25:31.838Z,16.37
2023-01-13T15:27:58.371Z,15.87
2023-01-13T15:30:26.159Z,8.27
2023-01-13T15:32:53.235Z,13.70
2023-01-13T15:35:20.071Z,8.87
2023-01-13T15:37:48.570Z,4.70
2023-01-13T15:40:16.330Z,7.00
2023-01-13T15:43:01.570Z,8.67
2023-01-13T15:45:46.443Z,7.37
2023-01-13T15:48:13.507Z,5.97
2023-01-13T15:50:39.953Z,5.93
2023-01-13T15:53:06.453Z,5.73
2023-01-13T15:55:34.673Z,5.43
2023-01-13T15:58:02.132Z,12.40
2023-01-13T16:00:28.775Z,3.90
2023-01-13T16:02:55.213Z,4.47
2023-01-13T16:05:21.690Z,6.50
2023-01-13T16:07:48.129Z,14.70
2023-01-13T16:10:19.196Z,7.03
2023-01-13T16:12:45.603Z,13.27
2023-01-13T16:15:13.455Z,8.97
2023-01-13T16:17:40.280Z,14.30
2023-01-13T16:20:11.813Z,8.27
2023-01-13T16:22:38.211Z,10.60
2023-01-13T16:25:04.880Z,18.47
2023-01-13T16:27:31.316Z,13.17
2023-01-13T16:29:57.774Z,14.00
2023-01-13T16:32:24.287Z,14.90
2023-01-13T16:34:50.694Z,10.43
2023-01-13T16:37:24.546Z,23.17
2023-01-13T16:39:51.920Z,8.43
2023-01-13T16:42:18.494Z,12.80
2023-01-13T16:44:46.631Z,14.37
2023-01-13T16:47:14.315Z,18.30
2023-01-13T16:49:40.888Z,15.20
2023-01-13T16:52:07.344Z,17.73
2023-01-13T16:54:33.823Z,12.77
2023-01-13T16:57:00.385Z,16.23
2023-01-13T16:59:27.079Z,16.07
2023-01-13T17:01:53.611Z,10.83
2023-01-13T17:04:21.630Z,11.53
2023-01-13T17:06:48.004Z,7.13
2023-01-13T17:09:18.640Z,16.47
2023-01-13T17:11:45.051Z,8.73
2023-01-13T17:14:17.992Z,9.00
2023-01-13T17:16:46.446Z,4.57
2023-01-13T17:19:13.279Z,9.40
2023-01-13T17:21:39.646Z,12.37
2023-01-13T17:24:07.914Z,19.60
2023-01-13T17:26:37.330Z,10.30
2023-01-13T17:29:05.646Z,10.00
2023-01-13T17:31:32.569Z,10.80
2023-01-13T17:33:59.085Z,12.03
2023-01-13T17:36:25.817Z,12.20
2023-01-13T17:38:52.595Z,11.70
2023-01-13T17:41:19.178Z,14.03
2023-01-13T17:43:45.643Z,13.97
2023-01-13T17:46:12.691Z,14.90
2023-01-13T17:48:39.203Z,20.80
2023-01-13T17:51:08.766Z,12.47
2023-01-13T17:53:35.155Z,15.53
2023-01-13T17:56:01.593Z,12.40
2023-01-13T17:58:28.487Z,10.63
2023-01-13T18:00:54.936Z,8.43
2023-01-13T18:03:21.376Z,13.80
2023-01-13T18:05:47.849Z,12.73
2023-01-13T18:08:14.325Z,12.00
2023-01-13T18:10:40.892Z,16.20
2023-01-13T18:13:07.846Z,10.70
2023-01-13T18:15:34.273Z,11.50
2023-01-13T18:18:00.631Z,13.30
2023-01-13T18:20:45.803Z,9.87
2023-01-13T18:23:35.354Z,10.20
2023-01-13T18:26:33.460Z,14.57
2023-01-13T18:29:00.094Z,13.57
2023-01-13T18:31:26.607Z,12.73
2023-01-13T18:33:53.105Z,25.10
2023-01-13T18:36:19.626Z,10.37
2023-01-13T18:38:46.048Z,7.47
2023-01-13T18:41:31.175Z,11.00
2023-01-13T18:43:57.556Z,11.20
2023-01-13T18:46:23.964Z,12.80
2023-01-13T18:48:50.349Z,30.53
2023-01-13T18:51:16.835Z,16.23
2023-01-13T18:53:43.222Z,13.13
2023-01-13T18:56:11.579Z,7.67
2023-01-13T18:58:47.775Z,5.30
2023-01-13T19:01:14.316Z,6.53
2023-01-13T19:03:40.845Z,11.20
2023-01-13T19:06:11.783Z,10.20
2023-01-13T19:08:38.298Z,10.17
2023-01-13T19:11:05.534Z,7.63
2023-01-13T19:13:31.980Z,17.20
2023-01-13T19:16:03.902Z,12.67
2023-01-13T19:18:30.282Z,9.40
2023-01-13T19:21:00.417Z,8.73
2023-01-13T19:23:26.853Z,10.73
2023-01-13T19:25:54.442Z,8.00
2023-01-13T19:28:22.019Z,15.47
2023-01-13T19:30:50.940Z,13.33
2023-01-13T19:33:17.412Z,9.60
2023-01-13T19:35:43.905Z,11.87
2023-01-13T19:38:10.410Z,12.00
2023-01-13T19:40:36.919Z,14.43
2023-01-13T19:43:21.965Z,8.07
2023-01-13T19:45:51.001Z,11.97
2023-01-13T19:48:21.330Z,14.43
2023-01-13T19:50:49.074Z,10.00
2023-01-13T19:53:17.677Z,11.13
2023-01-13T19:55:45.054Z,15.37
2023-01-13T19:58:11.732Z,6.37
2023-01-13T20:00:46.796Z,20.33
2023-01-13T20:03:17.017Z,20.13
2023-01-13T20:05:43.763Z,11.73
2023-01-13T20:08:10.651Z,6.80
2023-01-13T20:10:37.441Z,9.97
2023-01-13T20:13:04.105Z,7.77
2023-01-13T20:15:31.241Z,9.70
2023-01-13T20:18:00.861Z,8.17
2023-01-13T20:20:27.523Z,12.33
2023-01-13T20:22:53.865Z,14.33
2023-01-13T20:25:20.565Z,6.43
2023-01-13T20:27:47.328Z,7.67
2023-01-13T20:30:14.665Z,15.93
2023-01-13T20:32:41.974Z,10.87
2023-01-13T20:35:08.713Z,8.53
2023-01-13T20:37:36.745Z,7.17
2023-01-13T20:40:05.135Z,10.37
2023-01-13T20:42:46.926Z,4.17
2023-01-13T20:45:17.092Z,7.00
2023-01-13T20:47:44.276Z,8.53
2023-01-13T20:50:10.981Z,3.50
2023-01-13T20:52:37.781Z,5.40
2023-01-13T20:55:07.382Z,6.23
2023-01-13T20:57:34.082Z,6.33
2023-01-13T21:00:00.876Z,5.23
2023-01-13T21:02:27.282Z,8.27
2023-01-13T21:04:53.717Z,6.80
2023-01-13T21:07:20.121Z,12.57
2023-01-13T21:09:46.492Z,9.63
2023-01-13T21:12:32.544Z,9.33
2023-01-13T21:15:17.143Z,11.97
2023-01-13T21:18:02.823Z,5.23
2023-01-13T21:20:30.808Z,11.30
2023-01-13T21:22:57.244Z,10.07
2023-01-13T21:25:23.693Z,9.50
2023-01-13T21:27:50.042Z,17.60
2023-01-13T21:30:17.289Z,6.73
2023-01-13T21:32:44.423Z,10.07
2023-01-13T21:35:11.784Z,9.37
2023-01-13T21:37:38.748Z,5.73
2023-01-13T21:40:06.371Z,7.23
2023-01-13T21:42:51.225Z,7.13
2023-01-13T21:45:36.193Z,5.97
2023-01-13T21:48:02.593Z,9.37
2023-01-13T21:50:29.291Z,5.47
2023-01-13T21:52:57.416Z,9.67
2023-01-13T21:55:25.431Z,8.57
2023-01-13T21:58:06.679Z,7.20
2023-01-13T22:00:33.829Z,6.23
2023-01-13T22:03:02.441Z,7.77
2023-01-13T22:05:28.931Z,15.53
2023-01-13T22:07:55.389Z,9.37
2023-01-13T22:10:23.110Z,13.57
2023-01-13T22:12:52.541Z,14.40
2023-01-13T22:15:19.138Z,9.43
2023-01-13T22:17:48.343Z,7.60
2023-01-13T22:20:14.984Z,9.93
2023-01-13T22:22:41.415Z,12.50
2023-01-13T22:25:10.696Z,10.43
2023-01-13T22:27:43.162Z,8.67
2023-01-13T22:30:14.124Z,16.33
2023-01-13T22:32:40.559Z,14.20
2023-01-13T22:35:07.873Z,7.30
2023-01-13T22:37:34.283Z,14.40
2023-01-13T22:40:00.735Z,20.40
2023-01-13T22:42:27.102Z,15.60
2023-01-13T22:44:53.470Z,7.93
2023-01-13T22:47:19.900Z,17.03
2023-01-13T22:49:47.843Z,16.33
2023-01-13T22:52:14.804Z,6.27
2023-01-13T22:54:41.395Z,18.90
2023-01-13T22:57:07.772Z,8.83
2023-01-13T22:59:34.250Z,13.47
2023-01-13T23:02:00.843Z,15.90
2023-01-13T23:04:27.262Z,11.10
2023-01-13T23:06:53.754Z,10.53
2023-01-13T23:09:20.209Z,10.47
2023-01-13T23:11:47.856Z,12.13
2023-01-13T23:14:14.384Z,15.17
2023-01-13T23:16:41.093Z,15.30
2023-01-13T23:19:07.886Z,10.07
2023-01-13T23:21:36.181Z,9.77
2023-01-13T23:24:03.263Z,16.80
2023-01-13T23:26:30.503Z,15.10
2023-01-13T23:29:05.424Z,12.87
2023-01-13T23:31:32.254Z,12.67
2023-01-13T23:33:59.139Z,9.37
2023-01-13T23:36:26.404Z,16.97
2023-01-13T23:38:53.438Z,15.30
2023-01-13T23:41:21.459Z,12.07
2023-01-13T23:43:52.043Z,12.47
2023-01-13T23:46:18.748Z,12.13
2023-01-13T23:48:45.145Z,20.63
2023-01-13T23:51:13.018Z,8.73
2023-01-13T23:53:41.791Z,8.63
2023-01-13T23:56:10.415Z,10.20
2023-01-13T23:58:36.836Z,16.07
